Time;durP1;ratioP1;P1;durP2;ratioP2;P2;SDS_P1;SDS_P2;PMS_P1;PMS_P2;Temp;Humidity;BMP_temperature;BMP_pressure;BME280_temperature;BME280_humidity;BME280_pressure;Samples;Min_cycle;Max_cycle;Signal;HPM_P1;HPM_P2
2023/03/18 00:00:14;;;;;;;4.18;1.52;;;10.80;99.90;;;;;;4983905;28;20046;-75
2023/03/18 00:02:41;;;;;;;4.68;1.90;;;10.70;99.90;;;;;;4983988;28;20058;-74
2023/03/18 00:05:09;;;;;;;3.80;1.42;;;10.70;99.90;;;;;;4988574;28;20050;-75
2023/03/18 00:07:36;;;;;;;5.93;1.95;;;10.60;99.90;;;;;;4983365;28;20053;-75
2023/03/18 00:10:05;;;;;;;3.78;1.77;;;10.60;99.90;;;;;;4988103;28;20061;-76
2023/03/18 00:12:32;;;;;;;4.03;1.63;;;10.50;99.90;;;;;;4987641;28;20054;-75
2023/03/18 00:14:59;;;;;;;4.32;1.50;;;10.50;99.90;;;;;;4985392;28;20054;-75
2023/03/18 00:17:27;;;;;;;5.80;2.22;;;10.50;99.90;;;;;;4986705;28;20050;-74
2023/03/18 00:19:53;;;;;;;4.57;1.90;;;10.40;99.90;;;;;;4992086;28;20055;-75
2023/03/18 00:22:21;;;;;;;3.42;1.50;;;10.40;99.90;;;;;;4985698;28;20126;-76
2023/03/18 00:24:48;;;;;;;3.80;1.63;;;10.30;99.90;;;;;;4987720;28;20583;-76
2023/03/18 00:27:15;;;;;;;2.83;1.77;;;10.30;99.90;;;;;;4987309;28;20511;-76
2023/03/18 00:29:42;;;;;;;4.75;2.00;;;10.30;99.90;;;;;;4990290;28;20426;-77
2023/03/18 00:32:08;;;;;;;2.70;1.80;;;10.30;99.90;;;;;;4981223;28;20495;-77
2023/03/18 00:34:35;;;;;;;3.85;2.58;;;10.20;99.90;;;;;;4984605;28;20046;-76
2023/03/18 00:37:02;;;;;;;5.20;2.03;;;10.20;99.90;;;;;;4980159;28;20051;-76
2023/03/18 00:39:31;;;;;;;5.88;1.55;;;10.20;99.90;;;;;;4983534;28;20046;-77
2023/03/18 00:42:01;;;;;;;4.93;1.77;;;10.10;99.90;;;;;;4989260;28;20059;-76
2023/03/18 00:44:27;;;;;;;3.13;1.40;;;10.10;99.90;;;;;;4982237;28;20785;-76
2023/03/18 00:46:54;;;;;;;5.82;1.80;;;10.10;99.90;;;;;;4978859;28;20054;-76
2023/03/18 00:49:21;;;;;;;4.00;1.48;;;10.10;99.90;;;;;;4990878;28;20101;-76
2023/03/18 00:51:47;;;;;;;4.13;1.38;;;10.00;99.90;;;;;;4980630;28;20130;-77
2023/03/18 00:54:17;;;;;;;4.50;1.60;;;10.00;99.90;;;;;;4982981;28;20046;-77
2023/03/18 00:56:44;;;;;;;7.43;2.20;;;10.00;99.90;;;;;;4982928;28;20050;-76
2023/03/18 00:59:12;;;;;;;3.80;1.65;;;10.00;99.90;;;;;;4988864;28;20054;-76
2023/03/18 01:01:39;;;;;;;9.30;1.90;;;10.00;99.90;;;;;;4987266;28;20053;-76
2023/03/18 01:04:06;;;;;;;3.47;1.23;;;10.00;99.90;;;;;;4985151;28;20055;-76
2023/03/18 01:06:36;;;;;;;3.70;1.60;;;10.00;99.90;;;;;;4983053;28;20077;-77
2023/03/18 01:09:04;;;;;;;4.10;1.55;;;10.00;99.90;;;;;;4980631;28;20055;-75
2023/03/18 01:11:32;;;;;;;5.75;1.55;;;10.00;99.90;;;;;;4984340;28;20054;-76
2023/03/18 01:13:59;;;;;;;3.13;1.67;;;10.00;99.90;;;;;;4981403;28;20058;-76
2023/03/18 01:16:26;;;;;;;6.82;1.73;;;10.00;99.90;;;;;;4982107;28;20058;-75
2023/03/18 01:18:53;;;;;;;4.75;1.67;;;10.00;99.90;;;;;;4981794;28;20086;-76
2023/03/18 01:21:19;;;;;;;10.40;1.60;;;10.00;99.90;;;;;;4990056;28;20050;-77
2023/03/18 01:23:46;;;;;;;3.67;1.20;;;10.00;99.90;;;;;;4981276;28;20444;-76
2023/03/18 01:26:13;;;;;;;4.07;1.52;;;10.00;99.90;;;;;;4988784;28;20086;-76
2023/03/18 01:28:41;;;;;;;4.32;1.60;;;9.90;99.90;;;;;;4982619;28;20449;-76
2023/03/18 01:31:08;;;;;;;2.88;1.50;;;9.90;99.90;;;;;;4988481;28;20050;-76
2023/03/18 01:33:35;;;;;;;3.05;1.50;;;9.90;99.90;;;;;;4982932;28;20057;-76
2023/03/18 01:36:04;;;;;;;3.50;1.73;;;9.90;99.90;;;;;;4975418;28;20499;-77
2023/03/18 01:38:31;;;;;;;5.22;1.42;;;9.90;99.90;;;;;;4984854;28;20038;-76
2023/03/18 01:40:59;;;;;;;3.15;1.58;;;9.90;99.90;;;;;;4988210;28;20053;-76
2023/03/18 01:43:32;;;;;;;2.53;1.30;;;9.90;99.90;;;;;;4986338;28;20046;-75
2023/03/18 01:46:21;;;;;;;3.50;1.60;;;9.90;99.90;;;;;;4983036;28;20043;-76
2023/03/18 01:48:48;;;;;;;3.55;1.58;;;9.90;99.90;;;;;;4982817;28;20046;-76
2023/03/18 01:51:15;;;;;;;3.08;1.20;;;9.90;99.90;;;;;;4984872;28;20042;-76
2023/03/18 01:53:47;;;;;;;2.22;1.42;;;9.90;99.90;;;;;;4981809;28;20058;-76
2023/03/18 01:56:16;;;;;;;2.88;1.40;;;9.90;99.90;;;;;;4981583;28;20057;-76
2023/03/18 01:58:50;;;;;;;6.97;1.63;;;9.90;99.90;;;;;;4988393;28;20078;-76
2023/03/18 02:01:34;;;;;;;4.00;1.48;;;9.90;99.90;;;;;;4981515;28;20423;-75
2023/03/18 02:04:04;;;;;;;9.38;1.60;;;9.90;99.90;;;;;;4978632;28;20129;-74
2023/03/18 02:06:30;;;;;;;4.38;1.38;;;9.90;99.90;;;;;;4982026;28;20495;-75
2023/03/18 02:08:57;;;;;;;6.43;1.52;;;9.90;99.90;;;;;;4975522;28;20057;-76
2023/03/18 02:11:25;;;;;;;3.30;1.67;;;9.80;99.90;;;;;;4982260;28;20051;-76
2023/03/18 02:13:51;;;;;;;2.42;1.33;;;9.80;99.90;;;;;;4977249;28;20065;-76
2023/03/18 02:16:24;;;;;;;5.00;1.35;;;9.80;99.90;;;;;;4982153;28;20101;-76
2023/03/18 02:18:55;;;;;;;2.05;1.20;;;9.80;99.90;;;;;;4992229;28;20086;-76
2023/03/18 02:21:22;;;;;;;2.60;1.38;;;9.70;99.90;;;;;;4985407;28;20063;-76
2023/03/18 02:24:04;;;;;;;2.53;1.15;;;9.70;99.90;;;;;;4988568;28;20513;-76
2023/03/18 02:26:43;;;;;;;5.30;1.45;;;9.70;99.90;;;;;;4986493;28;20101;-77
2023/03/18 02:29:13;;;;;;;9.60;1.85;;;9.70;99.90;;;;;;4995436;28;20053;-76
2023/03/18 02:31:41;;;;;;;7.72;2.13;;;9.70;99.90;;;;;;4982635;28;20226;-76
2023/03/18 02:34:09;;;;;;;3.42;1.30;;;9.70;99.90;;;;;;4980280;28;20085;-76
2023/03/18 02:36:36;;;;;;;2.50;0.93;;;9.60;99.90;;;;;;4980764;28;20653;-75
2023/03/18 02:39:03;;;;;;;5.55;1.67;;;9.60;99.90;;;;;;4981295;28;20430;-76
2023/03/18 02:41:33;;;;;;;5.30;1.23;;;9.60;99.90;;;;;;4980114;28;20058;-76
2023/03/18 02:44:00;;;;;;;5.03;1.87;;;9.60;99.90;;;;;;4980071;28;20051;-75
2023/03/18 02:46:50;;;;;;;1.85;1.25;;;9.60;99.90;;;;;;4988919;28;20312;-76
2023/03/18 02:49:19;;;;;;;6.35;1.70;;;9.60;99.90;;;;;;4980530;28;20509;-76
2023/03/18 02:51:46;;;;;;;4.25;1.40;;;9.50;99.90;;;;;;4977858;28;20394;-75
2023/03/18 02:54:17;;;;;;;4.88;1.60;;;9.50;99.90;;;;;;4979711;28;20059;-75
2023/03/18 02:56:44;;;;;;;3.67;1.85;;;9.50;99.90;;;;;;4988440;28;20058;-76
2023/03/18 02:59:11;;;;;;;4.75;1.58;;;9.50;99.90;;;;;;4979464;28;20806;-76
2023/03/18 03:01:40;;;;;;;2.55;1.30;;;9.50;99.90;;;;;;4975772;28;20053;-75
2023/03/18 03:04:07;;;;;;;3.83;1.08;;;9.40;99.90;;;;;;4986953;28;20047;-75
2023/03/18 03:06:35;;;;;;;4.05;1.50;;;9.40;99.90;;;;;;4989658;28;20038;-76
2023/03/18 03:09:04;;;;;;;4.47;1.52;;;9.40;99.90;;;;;;4984068;28;20045;-76
2023/03/18 03:11:30;;;;;;;2.22;1.20;;;9.30;99.90;;;;;;4993399;28;20568;-75
2023/03/18 03:13:57;;;;;;;5.72;1.80;;;9.30;99.90;;;;;;4986062;28;20078;-76
2023/03/18 03:16:24;;;;;;;8.10;1.70;;;9.30;99.90;;;;;;4987483;28;20043;-75
2023/03/18 03:18:51;;;;;;;2.90;1.52;;;9.30;99.90;;;;;;4991907;28;20050;-75
2023/03/18 03:21:18;;;;;;;4.65;1.40;;;9.20;99.90;;;;;;4984829;28;20573;-76
2023/03/18 03:23:46;;;;;;;1.83;0.95;;;9.30;99.90;;;;;;4982668;28;20053;-76
2023/03/18 03:26:14;;;;;;;3.38;1.27;;;9.30;99.90;;;;;;4984685;28;20038;-76
2023/03/18 03:28:42;;;;;;;2.60;1.35;;;9.30;99.90;;;;;;4979892;28;20049;-75
2023/03/18 03:31:09;;;;;;;3.22;1.88;;;9.20;99.90;;;;;;4983278;28;20067;-76
2023/03/18 03:33:40;;;;;;;3.55;1.58;;;9.20;99.90;;;;;;4979928;28;20454;-76
2023/03/18 03:36:10;;;;;;;2.75;1.30;;;9.20;99.90;;;;;;4982966;28;20047;-76
2023/03/18 03:38:37;;;;;;;5.40;1.55;;;9.20;99.90;;;;;;4981354;28;20046;-75
2023/03/18 03:41:04;;;;;;;2.50;1.20;;;9.20;99.90;;;;;;4985845;28;20418;-76
2023/03/18 03:43:32;;;;;;;4.25;1.13;;;9.20;99.90;;;;;;4980163;28;20065;-76
2023/03/18 03:45:59;;;;;;;2.22;1.30;;;9.10;99.90;;;;;;4987741;28;20133;-77
2023/03/18 03:48:26;;;;;;;5.75;1.40;;;9.10;99.90;;;;;;4992448;28;20049;-76
2023/03/18 03:50:53;;;;;;;3.28;1.63;;;9.10;99.90;;;;;;4986248;28;20050;-76
2023/03/18 03:53:20;;;;;;;5.80;1.65;;;9.10;99.90;;;;;;4990955;28;20050;-76
2023/03/18 03:55:47;;;;;;;3.40;1.40;;;9.10;99.90;;;;;;4987476;28;20054;-75
2023/03/18 03:58:13;;;;;;;3.00;1.50;;;9.00;99.90;;;;;;4986360;28;20047;-75
2023/03/18 04:00:40;;;;;;;3.67;1.30;;;9.00;99.90;;;;;;4981541;28;20043;-75
2023/03/18 04:03:07;;;;;;;2.83;1.38;;;8.90;99.90;;;;;;4985636;28;20043;-75
2023/03/18 04:05:34;;;;;;;5.43;1.40;;;8.90;99.90;;;;;;4982074;28;20054;-76
2023/03/18 04:08:00;;;;;;;2.60;1.40;;;8.90;99.90;;;;;;4984031;28;20122;-75
2023/03/18 04:10:27;;;;;;;3.72;1.88;;;8.80;99.90;;;;;;4981206;28;20050;-75
2023/03/18 04:12:54;;;;;;;1.90;1.10;;;8.80;99.90;;;;;;4984257;28;20054;-75
2023/03/18 04:15:21;;;;;;;2.90;1.55;;;8.80;99.90;;;;;;4979301;28;20047;-76
2023/03/18 04:17:49;;;;;;;3.28;1.48;;;8.70;99.90;;;;;;4985684;28;20649;-76
2023/03/18 04:20:16;;;;;;;3.55;1.48;;;8.70;99.90;;;;;;4979650;28;20060;-76
2023/03/18 04:22:44;;;;;;;2.08;1.27;;;8.70;99.90;;;;;;4988374;28;20554;-75
2023/03/18 04:25:11;;;;;;;5.35;1.17;;;8.60;99.90;;;;;;4979488;28;20541;-76
2023/03/18 04:27:38;;;;;;;3.70;1.40;;;8.60;99.90;;;;;;4991886;28;20042;-75
2023/03/18 04:30:07;;;;;;;6.32;1.70;;;8.60;99.90;;;;;;4989942;28;20047;-76
2023/03/18 04:32:34;;;;;;;2.80;1.50;;;8.50;99.90;;;;;;4985193;28;20046;-75
2023/03/18 04:35:01;;;;;;;2.72;1.30;;;8.50;99.90;;;;;;4988320;28;20046;-75
2023/03/18 04:37:28;;;;;;;6.72;1.40;;;8.40;99.90;;;;;;4984641;28;20116;-76
2023/03/18 04:39:54;;;;;;;1.50;1.08;;;8.40;99.90;;;;;;4990411;28;20069;-75
2023/03/18 04:42:21;;;;;;;2.03;1.30;;;8.40;99.90;;;;;;4990464;28;20058;-76
2023/03/18 04:44:48;;;;;;;5.45;2.72;;;8.30;99.90;;;;;;4985293;28;20043;-75
2023/03/18 04:47:14;;;;;;;4.95;1.45;;;8.30;99.90;;;;;;4989169;28;20054;-76
2023/03/18 04:49:41;;;;;;;3.17;1.52;;;8.30;99.90;;;;;;4984573;28;20050;-75
2023/03/18 04:52:08;;;;;;;2.80;1.65;;;8.20;99.90;;;;;;4979110;28;20050;-75
2023/03/18 04:54:36;;;;;;;4.22;1.48;;;8.20;99.90;;;;;;4980908;28;20452;-75
2023/03/18 04:57:05;;;;;;;3.38;1.50;;;8.20;99.90;;;;;;4980484;28;20097;-75
2023/03/18 04:59:32;;;;;;;3.37;1.63;;;8.20;99.90;;;;;;4980566;28;20082;-75
2023/03/18 05:01:59;;;;;;;3.97;1.50;;;8.20;99.90;;;;;;4981386;28;20054;-75
2023/03/18 05:04:26;;;;;;;4.38;1.95;;;8.20;99.90;;;;;;4982044;28;20057;-75
2023/03/18 05:06:53;;;;;;;8.00;2.22;;;8.20;99.90;;;;;;4980573;28;20053;-76
2023/03/18 05:09:20;;;;;;;6.45;1.70;;;8.20;99.90;;;;;;4980995;28;20449;-75
2023/03/18 05:11:46;;;;;;;3.13;1.92;;;8.10;99.90;;;;;;4989095;28;20414;-76
2023/03/18 05:14:14;;;;;;;2.63;1.55;;;8.10;99.90;;;;;;4987407;28;20495;-76
2023/03/18 05:16:42;;;;;;;2.53;1.27;;;8.10;99.90;;;;;;4987236;28;20410;-75
2023/03/18 05:19:09;;;;;;;3.80;1.48;;;8.00;99.90;;;;;;4987596;28;20046;-76
2023/03/18 05:21:36;;;;;;;4.43;1.60;;;8.00;99.90;;;;;;4990649;28;20047;-75
2023/03/18 05:24:03;;;;;;;3.63;1.30;;;8.00;99.90;;;;;;4982917;28;20050;-75
2023/03/18 05:26:30;;;;;;;4.25;1.33;;;7.90;99.90;;;;;;4982725;28;20050;-76
2023/03/18 05:28:57;;;;;;;4.93;1.27;;;7.90;99.90;;;;;;4982679;28;20058;-76
2023/03/18 05:31:24;;;;;;;3.65;1.70;;;7.90;99.90;;;;;;4978867;28;20525;-75
2023/03/18 05:33:51;;;;;;;2.63;1.33;;;7.80;99.90;;;;;;4982610;28;20438;-76
2023/03/18 05:36:18;;;;;;;5.95;1.40;;;7.80;99.90;;;;;;4977941;28;20046;-75
2023/03/18 05:38:45;;;;;;;4.13;1.42;;;7.70;99.90;;;;;;4980401;28;20046;-75
2023/03/18 05:41:11;;;;;;;2.55;1.30;;;7.70;99.90;;;;;;4976913;28;20061;-75
2023/03/18 05:43:38;;;;;;;4.25;1.45;;;7.70;99.90;;;;;;4983122;28;20047;-75
2023/03/18 05:46:05;;;;;;;4.65;1.30;;;7.70;99.90;;;;;;4976077;28;20050;-76
2023/03/18 05:48:32;;;;;;;5.28;1.45;;;7.60;99.90;;;;;;4982893;28;20414;-76
2023/03/18 05:50:58;;;;;;;3.50;1.67;;;7.70;99.90;;;;;;4975522;28;20066;-76
2023/03/18 05:53:25;;;;;;;5.70;1.33;;;7.60;99.90;;;;;;4984673;28;20049;-75
2023/03/18 05:55:52;;;;;;;2.60;1.33;;;7.70;99.90;;;;;;4989118;28;20048;-76
2023/03/18 05:58:19;;;;;;;5.00;1.40;;;7.70;99.90;;;;;;4982937;28;20056;-76
2023/03/18 06:00:46;;;;;;;2.90;1.48;;;7.70;99.90;;;;;;4986220;28;20052;-76
2023/03/18 06:03:13;;;;;;;3.30;1.45;;;7.70;99.90;;;;;;4980298;28;20043;-75
2023/03/18 06:05:40;;;;;;;1.80;1.10;;;7.70;99.90;;;;;;4986577;28;20597;-76
2023/03/18 06:08:07;;;;;;;2.63;1.20;;;7.80;99.90;;;;;;4984301;28;20043;-76
2023/03/18 06:10:34;;;;;;;6.65;1.30;;;7.80;99.90;;;;;;4983226;28;20434;-75
2023/03/18 06:13:00;;;;;;;3.90;1.08;;;7.80;99.90;;;;;;4988105;28;20050;-75
2023/03/18 06:15:27;;;;;;;2.97;1.35;;;7.80;99.90;;;;;;4982110;28;20053;-74
2023/03/18 06:17:54;;;;;;;3.50;1.40;;;7.90;99.90;;;;;;4977767;28;20051;-76
2023/03/18 06:20:22;;;;;;;6.53;1.95;;;7.90;99.90;;;;;;4980204;28;20053;-76
2023/03/18 06:22:48;;;;;;;2.95;1.40;;;8.00;99.90;;;;;;4978088;28;20046;-76
2023/03/18 06:25:18;;;;;;;3.90;1.40;;;8.00;99.90;;;;;;4979260;28;20046;-76
2023/03/18 06:27:46;;;;;;;4.82;1.60;;;8.10;99.90;;;;;;4987846;28;20054;-76
2023/03/18 06:30:14;;;;;;;3.75;1.23;;;8.20;99.90;;;;;;4983875;28;20049;-75
2023/03/18 06:32:42;;;;;;;2.40;1.20;;;8.30;99.90;;;;;;4977662;28;20518;-76
2023/03/18 06:35:10;;;;;;;3.25;1.58;;;8.30;99.90;;;;;;4988380;28;20046;-76
2023/03/18 06:37:38;;;;;;;5.28;1.83;;;8.40;99.90;;;;;;4988000;28;20518;-76
2023/03/18 06:40:07;;;;;;;4.57;1.65;;;8.50;99.90;;;;;;4985026;28;20046;-75
2023/03/18 06:42:34;;;;;;;5.15;1.48;;;8.60;99.90;;;;;;4984706;28;20137;-76
2023/03/18 06:45:01;;;;;;;4.22;1.73;;;8.70;99.90;;;;;;4982304;28;20057;-77
2023/03/18 06:47:28;;;;;;;4.72;1.75;;;8.80;99.90;;;;;;4988129;28;20057;-76
2023/03/18 06:49:55;;;;;;;2.83;1.55;;;8.90;99.90;;;;;;4984378;28;20050;-76
2023/03/18 06:52:22;;;;;;;2.90;1.35;;;9.00;99.90;;;;;;4986281;28;20084;-76
2023/03/18 06:54:49;;;;;;;3.10;1.40;;;9.10;99.90;;;;;;4980449;28;20046;-77
2023/03/18 06:57:16;;;;;;;6.47;1.30;;;9.20;99.90;;;;;;4982542;28;20501;-76
2023/03/18 06:59:44;;;;;;;3.10;1.00;;;9.20;99.90;;;;;;4983472;28;20046;-76
2023/03/18 07:02:14;;;;;;;5.22;1.20;;;9.30;99.90;;;;;;4982510;28;20042;-75
2023/03/18 07:04:41;;;;;;;2.90;1.27;;;9.40;99.90;;;;;;4982281;28;20053;-76
2023/03/18 07:07:08;;;;;;;3.10;1.38;;;9.40;99.90;;;;;;4982444;28;20577;-76
2023/03/18 07:09:35;;;;;;;3.03;1.30;;;9.50;99.90;;;;;;4983835;28;20051;-75
2023/03/18 07:12:02;;;;;;;4.80;2.10;;;9.50;99.90;;;;;;4981250;28;20087;-74
2023/03/18 07:14:29;;;;;;;7.35;2.00;;;9.60;99.90;;;;;;4983073;28;20070;-76
2023/03/18 07:16:56;;;;;;;6.40;1.88;;;9.60;99.90;;;;;;4984086;28;20101;-75
2023/03/18 07:19:23;;;;;;;4.40;2.03;;;9.60;99.90;;;;;;4989292;28;20052;-76
2023/03/18 07:21:50;;;;;;;4.50;1.90;;;9.60;99.90;;;;;;4988753;28;20046;-75
2023/03/18 07:24:19;;;;;;;4.45;1.88;;;9.60;99.90;;;;;;4987498;28;20046;-76
2023/03/18 07:26:48;;;;;;;5.70;1.92;;;9.60;99.90;;;;;;4988636;28;20130;-76
2023/03/18 07:29:16;;;;;;;9.52;1.98;;;9.60;99.90;;;;;;4985317;28;20537;-76
2023/03/18 07:31:43;;;;;;;2.78;1.90;;;9.60;99.90;;;;;;4987001;28;20050;-76
2023/03/18 07:34:11;;;;;;;3.63;1.75;;;9.60;99.90;;;;;;4984022;28;20073;-76
2023/03/18 07:36:37;;;;;;;4.05;1.40;;;9.60;99.90;;;;;;4985110;28;20050;-75
2023/03/18 07:39:05;;;;;;;3.00;1.60;;;9.70;99.90;;;;;;4981441;28;20084;-76
2023/03/18 07:41:32;;;;;;;2.95;1.70;;;9.70;99.90;;;;;;4984520;28;20647;-76
2023/03/18 07:43:59;;;;;;;4.18;1.90;;;9.70;99.90;;;;;;4980206;28;20422;-77
2023/03/18 07:46:26;;;;;;;5.70;2.05;;;9.70;99.90;;;;;;4983938;28;20716;-76
2023/03/18 07:48:53;;;;;;;5.30;2.03;;;9.70;99.90;;;;;;4978936;28;20062;-76
2023/03/18 07:51:20;;;;;;;2.78;1.90;;;9.80;99.90;;;;;;4985653;28;20039;-75
2023/03/18 07:53:47;;;;;;;3.08;2.05;;;9.80;99.90;;;;;;4980707;28;20042;-76
2023/03/18 07:56:13;;;;;;;5.07;2.30;;;9.80;99.90;;;;;;4985407;28;20053;-76
2023/03/18 07:58:40;;;;;;;7.53;3.75;;;9.80;99.90;;;;;;4979156;28;20062;-76
2023/03/18 08:01:07;;;;;;;9.48;4.20;;;9.90;99.90;;;;;;4986920;28;20046;-76
2023/03/18 08:03:34;;;;;;;8.60;3.72;;;9.90;99.90;;;;;;4991786;28;20058;-76
2023/03/18 08:06:01;;;;;;;8.82;3.72;;;10.00;99.90;;;;;;4985875;28;20046;-76
2023/03/18 08:08:28;;;;;;;7.47;2.72;;;10.10;99.90;;;;;;4985174;28;20510;-76
2023/03/18 08:10:59;;;;;;;2.55;1.10;;;10.20;99.90;;;;;;4984582;28;20791;-76
2023/03/18 08:13:26;;;;;;;5.90;1.70;;;10.30;99.90;;;;;;4985652;28;20569;-77
2023/03/18 08:15:52;;;;;;;3.92;1.52;;;10.50;99.90;;;;;;4982882;28;20046;-76
2023/03/18 08:18:19;;;;;;;2.60;1.13;;;10.60;99.90;;;;;;4983749;28;20074;-76
2023/03/18 08:20:47;;;;;;;2.22;1.27;;;10.80;99.90;;;;;;4991509;28;20417;-76
2023/03/18 08:23:14;;;;;;;3.65;1.67;;;11.00;99.90;;;;;;4983910;28;20066;-76
2023/03/18 08:25:41;;;;;;;3.15;1.58;;;11.10;99.90;;;;;;4980149;28;20051;-76
2023/03/18 08:28:09;;;;;;;8.20;1.40;;;11.30;99.90;;;;;;4982765;28;20507;-76
2023/03/18 08:30:38;;;;;;;2.78;1.08;;;11.40;99.90;;;;;;4979718;28;20055;-76
2023/03/18 08:33:04;;;;;;;3.13;1.67;;;11.50;99.90;;;;;;4983818;28;20042;-77
2023/03/18 08:35:32;;;;;;;2.47;1.50;;;11.60;99.90;;;;;;4979313;28;20057;-76
2023/03/18 08:38:00;;;;;;;6.68;1.30;;;11.70;99.90;;;;;;4982971;28;20082;-76
2023/03/18 08:40:27;;;;;;;3.20;1.30;;;11.80;99.90;;;;;;4978127;28;20055;-76
2023/03/18 08:42:53;;;;;;;4.07;1.50;;;11.90;99.90;;;;;;4983782;28;20129;-76
2023/03/18 08:45:20;;;;;;;10.32;5.13;;;12.00;99.90;;;;;;4986785;28;20054;-76
2023/03/18 08:47:47;;;;;;;12.70;6.05;;;12.10;99.90;;;;;;4990990;28;20054;-76
2023/03/18 08:50:14;;;;;;;4.28;2.30;;;12.20;99.90;;;;;;4991505;28;20043;-77
2023/03/18 08:52:40;;;;;;;3.08;1.50;;;12.30;99.90;;;;;;4983657;28;20061;-76
2023/03/18 08:55:08;;;;;;;2.45;1.05;;;12.40;99.90;;;;;;4982427;28;20049;-76
2023/03/18 08:57:36;;;;;;;2.95;0.95;;;12.50;99.90;;;;;;4989968;28;20097;-75
2023/03/18 09:00:04;;;;;;;3.15;1.60;;;12.60;99.90;;;;;;4984027;28;20417;-76
2023/03/18 09:02:32;;;;;;;5.70;1.92;;;12.70;99.90;;;;;;4980632;28;20142;-76
2023/03/18 09:04:59;;;;;;;2.65;1.40;;;12.80;99.90;;;;;;4982986;28;20440;-76
2023/03/18 09:07:26;;;;;;;3.45;1.60;;;12.90;99.90;;;;;;4978790;28;20057;-76
2023/03/18 09:09:53;;;;;;;4.05;2.40;;;12.90;99.90;;;;;;4982036;28;20053;-76
2023/03/18 09:12:20;;;;;;;2.60;1.20;;;13.00;99.90;;;;;;4980389;28;20058;-76
2023/03/18 09:14:47;;;;;;;3.78;1.20;;;13.10;99.90;;;;;;4979743;28;20047;-76
2023/03/18 09:17:14;;;;;;;4.80;1.17;;;13.10;99.90;;;;;;4980591;28;20057;-77
2023/03/18 09:19:41;;;;;;;8.02;1.73;;;13.20;99.90;;;;;;4982111;28;20101;-76
2023/03/18 09:22:09;;;;;;;4.68;1.52;;;13.20;99.90;;;;;;4980509;28;20131;-76
2023/03/18 09:24:35;;;;;;;2.85;1.00;;;13.30;99.90;;;;;;4986656;28;20050;-76
2023/03/18 09:27:02;;;;;;;4.43;1.73;;;13.30;99.90;;;;;;4985743;28;21046;-75
2023/03/18 09:29:29;;;;;;;1.92;1.05;;;13.30;99.90;;;;;;4983422;28;20049;-76
2023/03/18 09:31:56;;;;;;;6.20;1.55;;;13.30;99.90;;;;;;4983430;28;20051;-75
2023/03/18 09:34:22;;;;;;;4.10;1.70;;;13.40;99.90;;;;;;4979868;28;20039;-76
2023/03/18 09:36:52;;;;;;;5.28;1.70;;;13.40;99.90;;;;;;4981754;28;20130;-75
2023/03/18 09:39:20;;;;;;;2.42;1.10;;;13.50;99.90;;;;;;4979254;28;20133;-75
2023/03/18 09:42:14;;;;;;;2.33;1.00;;;13.50;99.90;;;;;;4984663;28;20134;-76
2023/03/18 09:44:42;;;;;;;4.82;0.98;;;13.60;99.90;;;;;;4978065;28;20114;-76
2023/03/18 09:47:27;;;;;;;3.90;1.17;;;13.60;99.90;;;;;;4981886;28;20046;-76
2023/03/18 09:50:15;;;;;;;1.35;0.82;;;13.60;99.90;;;;;;4979290;28;20054;-75
2023/03/18 09:53:10;;;;;;;3.45;1.00;;;13.60;99.90;;;;;;4986164;28;20042;-76
2023/03/18 09:55:45;;;;;;;6.10;1.67;;;13.50;99.90;;;;;;4976408;28;20766;-75
2023/03/18 09:58:21;;;;;;;3.85;2.10;;;13.50;99.90;;;;;;4981990;28;20125;-74
2023/03/18 10:00:52;;;;;;;1.50;0.80;;;13.50;99.90;;;;;;4982976;28;20046;-76
2023/03/18 10:03:28;;;;;;;1.77;0.77;;;13.50;99.90;;;;;;4980232;28;20047;-75
2023/03/18 10:06:19;;;;;;;4.07;1.23;;;13.60;99.90;;;;;;4985606;28;20050;-73
2023/03/18 10:09:07;;;;;;;3.83;1.33;;;13.60;99.90;;;;;;4982713;28;20054;-76
2023/03/18 10:11:41;;;;;;;2.88;1.20;;;13.60;99.90;;;;;;4984872;28;20047;-75
2023/03/18 10:14:26;;;;;;;4.10;1.02;;;13.60;99.90;;;;;;4983347;28;20048;-76
2023/03/18 10:17:03;;;;;;;3.90;1.30;;;13.70;99.90;;;;;;4983743;28;20056;-74
2023/03/18 10:19:32;;;;;;;1.90;0.90;;;13.70;99.90;;;;;;4982006;28;20056;-75
2023/03/18 10:22:30;;;;;;;3.25;1.77;;;13.70;99.90;;;;;;4980243;28;20052;-75
2023/03/18 10:25:41;;;;;;;5.93;1.80;;;13.70;99.90;;;;;;4982917;28;20121;-75
2023/03/18 10:28:19;;;;;;;1.90;1.30;;;13.80;99.90;;;;;;4970670;28;20057;-75
2023/03/18 10:30:53;;;;;;;8.38;3.75;;;13.80;99.90;;;;;;4981112;28;20059;-74
2023/03/18 10:33:29;;;;;;;4.90;1.90;;;13.80;99.90;;;;;;4976846;28;20047;-75
2023/03/18 10:35:59;;;;;;;8.05;3.78;;;13.80;99.90;;;;;;4982299;28;20042;-75
2023/03/18 10:38:38;;;;;;;3.75;1.75;;;13.80;99.90;;;;;;4976220;28;20089;-75
2023/03/18 10:41:18;;;;;;;3.08;1.48;;;13.90;99.90;;;;;;4985695;28;20520;-76
2023/03/18 10:43:50;;;;;;;5.05;2.97;;;13.90;99.90;;;;;;4977038;28;20137;-74
2023/03/18 10:46:20;;;;;;;4.90;1.70;;;13.90;99.90;;;;;;4984026;28;20050;-76
2023/03/18 10:49:06;;;;;;;6.53;2.85;;;14.00;99.90;;;;;;4988031;28;20660;-76
2023/03/18 10:51:39;;;;;;;6.85;4.10;;;14.00;99.90;;;;;;4981774;28;20463;-76
2023/03/18 10:54:11;;;;;;;3.85;1.90;;;14.00;99.90;;;;;;4983165;28;20462;-75
2023/03/18 10:56:38;;;;;;;2.97;1.50;;;14.10;99.90;;;;;;4984176;28;20039;-76
2023/03/18 10:59:12;;;;;;;12.40;6.20;;;14.10;99.90;;;;;;4983009;28;20085;-75
2023/03/18 11:01:40;;;;;;;7.53;3.97;;;14.20;99.90;;;;;;4983782;28;20125;-76
2023/03/18 11:04:13;;;;;;;5.43;2.33;;;14.30;99.90;;;;;;4984139;28;20073;-76
2023/03/18 11:06:52;;;;;;;4.25;1.77;;;14.40;99.90;;;;;;4986442;28;20577;-75
2023/03/18 11:09:21;;;;;;;3.67;1.98;;;14.50;99.90;;;;;;4978457;28;20137;-76
2023/03/18 11:11:54;;;;;;;4.13;2.90;;;14.70;99.90;;;;;;5040971;23;20045;-77
2023/03/18 11:14:28;;;;;;;4.15;2.45;;;14.90;99.90;;;;;;5026793;28;20323;-78
2023/03/18 11:17:03;;;;;;;6.00;3.17;;;15.00;99.90;;;;;;5034752;28;20045;-77
2023/03/18 11:19:38;;;;;;;5.30;2.97;;;15.10;99.90;;;;;;5034371;28;20054;-78
2023/03/18 11:22:19;;;;;;;5.20;2.08;;;15.30;99.90;;;;;;5039388;28;20049;-81
2023/03/18 11:25:15;;;;;;;7.18;2.35;;;15.30;99.90;;;;;;5040777;28;20473;-78
2023/03/18 11:27:44;;;;;;;7.03;1.77;;;15.30;99.90;;;;;;5035961;28;20046;-80
2023/03/18 11:30:27;;;;;;;3.85;1.70;;;15.30;99.90;;;;;;5042702;28;20046;-82
2023/03/18 11:33:11;;;;;;;8.00;2.22;;;15.30;99.90;;;;;;5044273;28;20041;-81
2023/03/18 11:35:46;;;;;;;4.65;1.35;;;15.30;99.90;;;;;;5060481;28;20113;-80
2023/03/18 11:38:35;;;;;;;1.77;1.38;;;15.30;99.90;;;;;;5045998;28;20049;-80
2023/03/18 11:41:16;;;;;;;4.20;1.80;;;15.30;99.90;;;;;;5043826;28;20059;-80
2023/03/18 11:43:55;;;;;;;3.90;2.08;;;15.30;99.90;;;;;;5046911;28;20050;-81
2023/03/18 11:46:24;;;;;;;7.45;1.67;;;15.30;99.90;;;;;;5036776;28;20072;-80
2023/03/18 11:48:51;;;;;;;2.50;1.13;;;15.30;99.90;;;;;;5034893;28;20052;-81
2023/03/18 11:51:29;;;;;;;4.72;2.60;;;15.30;99.90;;;;;;5038829;28;20113;-83
2023/03/18 11:54:08;;;;;;;7.13;4.15;;;15.30;99.90;;;;;;5045373;28;20042;-81
2023/03/18 11:56:46;;;;;;;13.02;6.45;;;15.40;99.90;;;;;;5041525;28;20050;-81
2023/03/18 11:59:45;;;;;;;9.20;4.70;;;15.40;99.90;;;;;;5039904;28;20046;-81
2023/03/18 12:02:36;;;;;;;12.35;6.65;;;15.50;99.90;;;;;;5040196;28;20088;-80
2023/03/18 12:05:32;;;;;;;9.60;4.97;;;15.50;99.90;;;;;;5032567;28;20061;-79
2023/03/18 12:08:10;;;;;;;7.70;2.60;;;15.60;99.90;;;;;;5034621;28;20057;-80
2023/03/18 12:10:47;;;;;;;16.52;8.85;;;15.70;99.90;;;;;;5034328;28;20041;-81
2023/03/18 12:13:25;;;;;;;7.53;3.78;;;15.80;99.90;;;;;;5040700;28;20105;-79
2023/03/18 12:16:10;;;;;;;12.35;6.03;;;15.80;99.90;;;;;;5041439;28;20053;-81
2023/03/18 12:19:01;;;;;;;5.40;3.10;;;15.80;99.90;;;;;;5040478;28;20065;-81
2023/03/18 12:21:52;;;;;;;3.60;1.92;;;15.90;99.90;;;;;;5036197;28;20053;-81
2023/03/18 12:24:37;;;;;;;5.25;1.42;;;15.90;99.90;;;;;;5040855;28;20072;-83
2023/03/18 12:27:25;;;;;;;3.03;1.67;;;16.00;99.90;;;;;;5041138;28;20053;-81
2023/03/18 12:30:05;;;;;;;4.35;1.63;;;16.10;99.90;;;;;;5033872;28;20050;-81
2023/03/18 12:32:45;;;;;;;2.70;1.30;;;16.20;99.90;;;;;;5044379;28;20060;-82
2023/03/18 12:35:18;;;;;;;5.13;1.17;;;16.20;99.90;;;;;;5047811;28;20416;-80
2023/03/18 12:38:31;;;;;;;3.15;1.02;;;16.30;99.90;;;;;;5040504;28;20486;-80
2023/03/18 12:41:28;;;;;;;4.38;1.10;;;16.40;99.90;;;;;;5045552;28;20062;-81
2023/03/18 12:44:19;;;;;;;3.00;1.40;;;16.40;99.90;;;;;;5047668;28;20049;-81
2023/03/18 12:47:30;;;;;;;4.57;1.50;;;16.50;99.90;;;;;;5056995;28;20060;-82
2023/03/18 12:50:18;;;;;;;1.48;0.82;;;16.70;99.90;;;;;;5027066;28;20080;-81
2023/03/18 12:53:08;;;;;;;5.18;1.27;;;16.80;99.90;;;;;;5029415;28;20046;-81
2023/03/18 12:55:38;;;;;;;;;;;16.90;99.90;;;;;;5038305;28;20494;-80
2023/03/18 12:58:09;;;;;;;2.10;0.93;;;16.90;99.90;;;;;;5049339;28;19997;-80
2023/03/18 13:00:46;;;;;;;1.52;0.90;;;17.00;99.90;;;;;;5046328;28;20084;-82
2023/03/18 13:03:34;;;;;;;3.15;1.42;;;17.00;99.90;;;;;;5041030;28;20432;-80
2023/03/18 13:06:23;;;;;;;2.80;1.02;;;17.10;99.90;;;;;;5044968;28;20069;-81
2023/03/18 13:09:06;;;;;;;4.10;1.35;;;17.10;99.90;;;;;;5039193;28;20053;-81
2023/03/18 13:11:43;;;;;;;7.30;1.73;;;17.10;99.90;;;;;;5042500;28;20120;-81